Time;durP1;ratioP1;P1;durP2;ratioP2;P2;SDS_P1;SDS_P2;PMS_P1;PMS_P2;Temp;Humidity;BMP_temperature;BMP_pressure;BME280_temperature;BME280_humidity;BME280_pressure;Samples;Min_cycle;Max_cycle;Signal;HPM_P1;HPM_P2
2023/05/22 00:01:38;139684.00;0.47;242.03;0.00;0.00;0.62;;;;;18.90;1.00;;;;;;2271826;61;1606;-86
2023/05/22 00:04:05;126786.00;0.42;219.79;0.00;0.00;0.62;;;;;18.90;1.00;;;;;;2271635;61;2002;-84
2023/05/22 00:06:32;157859.00;0.53;273.35;0.00;0.00;0.62;;;;;18.90;1.00;;;;;;2271756;61;1732;-86
2023/05/22 00:09:01;113962.00;0.38;197.67;0.00;0.00;0.62;;;;;18.80;1.00;;;;;;2271745;61;2155;-85
2023/05/22 00:11:28;204850.00;0.68;354.27;29124.00;0.10;51.07;;;;;18.70;1.00;;;;;;2271689;61;1655;-85
2023/05/22 00:13:55;26660.00;0.09;46.80;0.00;0.00;0.62;;;;;18.70;1.00;;;;;;2271682;61;1618;-88
2023/05/22 00:16:22;70907.00;0.24;123.33;0.00;0.00;0.62;;;;;18.60;1.00;;;;;;2271595;61;2018;-87
2023/05/22 00:18:49;113691.00;0.38;197.20;0.00;0.00;0.62;;;;;18.50;1.00;;;;;;2271757;61;1961;-89
2023/05/22 00:21:17;77122.00;0.26;134.07;0.00;0.00;0.62;;;;;18.40;1.00;;;;;;2271694;61;1591;-84
2023/05/22 00:23:44;94191.00;0.31;163.54;0.00;0.00;0.62;;;;;18.50;1.00;;;;;;2271795;61;983;-85
2023/05/22 00:26:15;221488.00;0.74;382.90;0.00;0.00;0.62;;;;;18.70;1.00;;;;;;2271643;61;2010;-86
2023/05/22 00:28:42;160064.00;0.53;277.15;0.00;0.00;0.62;;;;;18.60;1.00;;;;;;2271704;61;1794;-87
2023/05/22 00:31:09;353280.00;1.18;609.50;96176.00;0.32;166.97;;;;;18.60;1.00;;;;;;2271785;61;1697;-86
2023/05/22 00:33:36;104079.00;0.35;180.61;0.00;0.00;0.62;;;;;18.40;1.00;;;;;;2272402;61;1009;-86
2023/05/22 00:36:03;286973.00;0.96;495.53;0.00;0.00;0.62;;;;;18.20;1.00;;;;;;2272366;61;1309;-85
2023/05/22 00:38:32;68147.00;0.23;118.56;0.00;0.00;0.62;;;;;18.40;1.00;;;;;;2272381;61;1810;-87
2023/05/22 00:40:59;53077.00;0.18;92.51;0.00;0.00;0.62;;;;;18.70;1.00;;;;;;2272329;61;2233;-87
2023/05/22 00:43:28;200529.00;0.67;346.83;0.00;0.00;0.62;;;;;18.60;1.00;;;;;;2272357;61;990;-88
2023/05/22 00:45:55;252490.00;0.84;436.23;0.00;0.00;0.62;;;;;18.60;1.00;;;;;;2272249;61;2032;-87
2023/05/22 00:48:22;268136.00;0.89;463.14;3284.00;0.01;6.31;;;;;18.50;1.00;;;;;;2272267;61;1622;-86
2023/05/22 00:50:51;142089.00;0.47;246.17;0.00;0.00;0.62;;;;;18.50;1.00;;;;;;2272267;61;1622;-84
2023/05/22 00:53:21;39995.00;0.13;69.88;0.00;0.00;0.62;;;;;18.70;1.00;;;;;;2272328;61;2047;-87
2023/05/22 00:55:48;247821.00;0.83;428.20;28706.00;0.10;50.34;;;;;18.70;1.00;;;;;;2272180;61;1344;-86
2023/05/22 00:58:17;108497.00;0.36;188.24;0.00;0.00;0.62;;;;;18.50;1.00;;;;;;2272307;61;1112;-84
2023/05/22 01:00:46;159723.00;0.53;276.56;0.00;0.00;0.62;;;;;18.50;1.00;;;;;;2272163;61;1630;-86
2023/05/22 01:03:14;52365.00;0.17;91.28;0.00;0.00;0.62;;;;;18.60;1.00;;;;;;2272255;61;1776;-86
2023/05/22 01:05:41;27589.00;0.09;48.41;0.00;0.00;0.62;;;;;18.50;1.00;;;;;;2272135;61;1919;-85
2023/05/22 01:08:09;385007.00;1.28;664.03;6058.00;0.02;11.12;;;;;18.30;1.00;;;;;;2272228;61;1907;-87
2023/05/22 01:10:39;122399.00;0.41;212.22;0.00;0.00;0.62;;;;;18.20;1.00;;;;;;2272216;61;1596;-85
2023/05/22 01:13:14;213717.00;0.71;369.53;0.00;0.00;0.62;;;;;18.20;1.00;;;;;;2272251;61;1300;-86
2023/05/22 01:15:51;330940.00;1.10;571.10;63482.00;0.21;110.50;;;;;18.40;1.00;;;;;;2272176;61;1704;-86
2023/05/22 01:18:28;124455.00;0.41;215.77;0.00;0.00;0.62;;;;;18.10;1.00;;;;;;2272210;61;1743;-86
2023/05/22 01:21:03;73585.00;0.25;127.95;0.00;0.00;0.62;;;;;17.90;1.00;;;;;;2272302;61;1008;-86
2023/05/22 01:24:03;157404.00;0.52;272.57;0.00;0.00;0.62;;;;;17.90;1.00;;;;;;2272260;61;1001;-86
2023/05/22 01:26:52;88659.00;0.30;153.99;0.00;0.00;0.62;;;;;18.10;1.00;;;;;;2272103;61;2023;-86
2023/05/22 01:29:46;110983.00;0.37;192.53;0.00;0.00;0.62;;;;;18.10;1.00;;;;;;2272141;61;2191;-86
2023/05/22 01:32:20;85761.00;0.29;148.99;0.00;0.00;0.62;;;;;17.80;1.00;;;;;;2266809;61;1032;-85
2023/05/22 01:34:53;201961.00;0.67;349.30;0.00;0.00;0.62;;;;;17.80;1.00;;;;;;2272091;61;1521;-88
2023/05/22 01:37:21;88906.00;0.30;154.42;0.00;0.00;0.62;;;;;17.80;1.00;;;;;;2272144;61;2295;-86
2023/05/22 01:39:51;485816.00;1.62;837.41;155847.00;0.52;269.88;;;;;17.80;1.00;;;;;;2272091;61;1819;-87
2023/05/22 01:42:18;114549.00;0.38;198.68;0.00;0.00;0.62;;;;;17.70;1.00;;;;;;2272023;61;1838;-87
2023/05/22 01:44:45;277127.00;0.92;478.60;11302.00;0.04;20.20;;;;;17.60;1.00;;;;;;2271963;61;1998;-88
2023/05/22 01:47:13;98412.00;0.33;170.83;0.00;0.00;0.62;;;;;17.70;1.00;;;;;;2272073;61;1095;-86
2023/05/22 01:49:41;175656.00;0.59;304.01;0.00;0.00;0.62;;;;;17.70;1.00;;;;;;2272100;61;1940;-87
2023/05/22 01:52:18;239351.00;0.80;413.63;0.00;0.00;0.62;;;;;17.70;1.00;;;;;;2272009;61;1693;-86
2023/05/22 01:54:53;122740.00;0.41;212.81;0.00;0.00;0.62;;;;;17.80;1.00;;;;;;2272004;61;1659;-87
2023/05/22 01:57:27;104148.00;0.35;180.73;0.00;0.00;0.62;;;;;17.70;1.00;;;;;;2272033;61;1811;-87
2023/05/22 02:00:01;119220.00;0.40;206.74;0.00;0.00;0.62;;;;;17.30;1.00;;;;;;2272038;61;1671;-86
2023/05/22 02:02:31;86760.00;0.29;150.71;0.00;0.00;0.62;;;;;17.00;1.00;;;;;;2271979;61;1445;-87
2023/05/22 02:05:00;196522.00;0.66;339.94;0.00;0.00;0.62;;;;;16.90;1.40;;;;;;2272077;61;1927;-86
2023/05/22 02:07:29;192714.00;0.64;333.38;0.00;0.00;0.62;;;;;17.10;1.00;;;;;;2272010;61;1616;-86
2023/05/22 02:09:57;141824.00;0.47;245.72;0.00;0.00;0.62;;;;;17.10;1.30;;;;;;2272061;61;1579;-85
2023/05/22 02:12:25;217066.00;0.72;375.30;0.00;0.00;0.62;;;;;16.90;2.80;;;;;;2271940;61;2089;-85
2023/05/22 02:14:52;218016.00;0.73;376.93;0.00;0.00;0.62;;;;;16.80;3.50;;;;;;2271955;61;1746;-86
2023/05/22 02:17:20;101395.00;0.34;175.98;0.00;0.00;0.62;;;;;16.60;3.70;;;;;;2271914;61;1619;-86
2023/05/22 02:19:49;96225.00;0.32;167.06;0.00;0.00;0.62;;;;;16.40;4.20;;;;;;2272088;61;1738;-85
2023/05/22 02:22:16;198239.00;0.66;342.89;0.00;0.00;0.62;;;;;16.50;5.10;;;;;;2271967;61;2056;-86
2023/05/22 02:24:47;215705.00;0.72;372.95;11821.00;0.04;21.10;;;;;16.50;4.20;;;;;;2271927;61;1927;-86
2023/05/22 02:27:14;215508.00;0.72;372.61;0.00;0.00;0.62;;;;;16.70;3.70;;;;;;2271954;61;1341;-86
2023/05/22 02:29:41;69364.00;0.23;120.66;0.00;0.00;0.62;;;;;16.80;3.70;;;;;;2271979;61;1555;-86
2023/05/22 02:32:08;26552.00;0.09;46.61;0.00;0.00;0.62;;;;;17.00;3.00;;;;;;2272001;61;1814;-86
2023/05/22 02:34:36;86540.00;0.29;150.33;0.00;0.00;0.62;;;;;17.00;3.20;;;;;;2271800;61;1554;-86
2023/05/22 02:37:05;166921.00;0.56;288.96;0.00;0.00;0.62;;;;;17.10;3.00;;;;;;2271932;61;1760;-87
2023/05/22 02:39:32;213331.00;0.71;368.87;0.00;0.00;0.62;;;;;17.00;2.90;;;;;;2271774;61;1829;-85
2023/05/22 02:41:59;151800.00;0.51;262.91;0.00;0.00;0.62;;;;;16.90;3.80;;;;;;2271915;61;1740;-86
2023/05/22 02:44:26;135451.00;0.45;234.73;0.00;0.00;0.62;;;;;17.10;2.80;;;;;;2271914;61;2143;-87
2023/05/22 02:46:53;119753.00;0.40;207.66;10639.00;0.04;19.06;;;;;17.60;2.00;;;;;;2271952;61;1962;-87
2023/05/22 02:49:20;75101.00;0.25;130.57;0.00;0.00;0.62;;;;;17.80;1.00;;;;;;2271920;61;1591;-87
2023/05/22 02:51:47;67430.00;0.22;117.32;0.00;0.00;0.62;;;;;17.90;1.00;;;;;;2271700;61;1564;-87
2023/05/22 02:54:17;267709.00;0.89;462.40;0.00;0.00;0.62;;;;;17.90;1.00;;;;;;2271727;61;1386;-87
2023/05/22 02:56:44;168271.00;0.56;291.29;0.00;0.00;0.62;;;;;17.90;1.00;;;;;;2271808;61;1584;-87
2023/05/22 02:59:11;229387.00;0.76;396.49;0.00;0.00;0.62;;;;;17.80;1.00;;;;;;2271834;61;1066;-87
2023/05/22 03:01:38;197888.00;0.66;342.29;0.00;0.00;0.62;;;;;18.00;1.00;;;;;;2271981;61;1684;-87
2023/05/22 03:04:06;173806.00;0.58;300.82;0.00;0.00;0.62;;;;;18.10;1.00;;;;;;2272045;61;1341;-87
2023/05/22 03:06:33;11005.00;0.04;19.69;0.00;0.00;0.62;;;;;17.90;1.00;;;;;;2272048;61;1974;-88
2023/05/22 03:09:02;118711.00;0.40;205.86;0.00;0.00;0.62;;;;;17.70;1.00;;;;;;2272165;61;1597;-86
2023/05/22 03:11:31;65667.00;0.22;114.27;0.00;0.00;0.62;;;;;17.70;1.00;;;;;;2272278;61;1140;-88
2023/05/22 03:13:58;55082.00;0.18;95.97;0.00;0.00;0.62;;;;;17.70;1.00;;;;;;2272150;61;1788;-87
2023/05/22 03:16:25;6431.00;0.02;11.77;0.00;0.00;0.62;;;;;17.70;1.00;;;;;;2272068;61;1650;-87
2023/05/22 03:19:06;60675.00;0.20;105.64;0.00;0.00;0.62;;;;;17.80;1.00;;;;;;2272090;61;1869;-87
2023/05/22 03:21:33;48728.00;0.16;84.99;0.00;0.00;0.62;;;;;17.70;1.00;;;;;;2272159;61;2268;-85
2023/05/22 03:24:00;21820.00;0.07;38.42;0.00;0.00;0.62;;;;;17.90;1.00;;;;;;2272148;61;1521;-86
2023/05/22 03:26:27;147649.00;0.49;255.76;53343.00;0.18;92.97;;;;;17.80;1.00;;;;;;2272224;61;1999;-87
2023/05/22 03:28:57;300199.00;1.00;518.26;80916.00;0.27;140.62;;;;;17.90;1.00;;;;;;2272047;61;1728;-88
2023/05/22 03:31:25;91947.00;0.31;159.67;0.00;0.00;0.62;;;;;18.10;1.00;;;;;;2272076;61;1665;-88
2023/05/22 03:33:51;51732.00;0.17;90.18;0.00;0.00;0.62;;;;;18.10;1.00;;;;;;2272155;61;1749;-86
2023/05/22 03:36:18;10514.00;0.04;18.84;0.00;0.00;0.62;;;;;18.00;1.00;;;;;;2272159;61;1588;-85
2023/05/22 03:38:45;84784.00;0.28;147.30;0.00;0.00;0.62;;;;;17.90;1.00;;;;;;2272120;61;1473;-87
2023/05/22 03:41:12;58020.00;0.19;101.05;0.00;0.00;0.62;;;;;18.00;1.00;;;;;;2272104;61;2283;-86
2023/05/22 03:43:39;166050.00;0.55;287.46;0.00;0.00;0.62;;;;;18.00;1.00;;;;;;2272146;61;1655;-87
2023/05/22 03:46:09;164267.00;0.55;284.39;0.00;0.00;0.62;;;;;18.00;1.00;;;;;;2271983;61;2019;-87
2023/05/22 03:48:36;65468.00;0.22;113.93;0.00;0.00;0.62;;;;;18.00;1.00;;;;;;2272039;61;1579;-86
2023/05/22 03:51:03;93089.00;0.31;161.64;0.00;0.00;0.62;;;;;17.80;1.00;;;;;;2272158;61;1041;-86
2023/05/22 03:53:30;25806.00;0.09;45.32;0.00;0.00;0.62;;;;;18.00;1.00;;;;;;2272082;61;1724;-86
2023/05/22 03:55:58;171752.00;0.57;297.28;0.00;0.00;0.62;;;;;18.10;1.00;;;;;;2272051;61;1438;-87
2023/05/22 03:58:25;0.00;0.00;0.62;0.00;0.00;0.62;;;;;18.20;1.00;;;;;;2272038;61;1738;-85
2023/05/22 04:00:53;109425.00;0.36;189.84;0.00;0.00;0.62;;;;;18.30;1.00;;;;;;2272026;61;1562;-87
2023/05/22 04:03:22;31798.00;0.11;55.70;0.00;0.00;0.62;;;;;18.30;1.00;;;;;;2272004;61;1654;-87
2023/05/22 04:05:49;52660.00;0.18;91.79;0.00;0.00;0.62;;;;;18.30;1.00;;;;;;2272364;61;2014;-87
2023/05/22 04:08:15;89928.00;0.30;156.18;0.00;0.00;0.62;;;;;18.40;1.00;;;;;;2272686;61;1669;-86
2023/05/22 04:10:45;45576.00;0.15;79.53;0.00;0.00;0.62;;;;;18.50;1.00;;;;;;2272731;61;2265;-87
2023/05/22 04:13:12;98866.00;0.33;171.61;0.00;0.00;0.62;;;;;18.50;1.00;;;;;;2272668;61;1544;-87
2023/05/22 04:15:42;144801.00;0.48;250.85;19007.00;0.06;33.55;;;;;18.50;1.00;;;;;;2272726;61;2096;-86
2023/05/22 04:18:10;123163.00;0.41;213.54;0.00;0.00;0.62;;;;;18.50;1.00;;;;;;2272642;61;1428;-87
2023/05/22 04:20:39;5542.00;0.02;10.22;0.00;0.00;0.62;;;;;18.60;1.00;;;;;;2272698;61;1558;-87
2023/05/22 04:23:06;89871.00;0.30;156.08;0.00;0.00;0.62;;;;;18.60;1.00;;;;;;2272652;61;2068;-88
2023/05/22 04:25:35;265419.00;0.88;458.47;33784.00;0.11;59.13;;;;;18.80;1.00;;;;;;2272652;61;2043;-85
2023/05/22 04:28:03;2660.00;0.01;5.23;0.00;0.00;0.62;;;;;19.10;1.00;;;;;;2272712;61;1541;-87
2023/05/22 04:30:32;29540.00;0.10;51.79;0.00;0.00;0.62;;;;;19.10;1.00;;;;;;2272787;61;873;-87
2023/05/22 04:33:00;145417.00;0.48;251.91;0.00;0.00;0.62;;;;;19.20;1.00;;;;;;2272682;61;1935;-86
2023/05/22 04:35:29;35963.00;0.12;62.90;0.00;0.00;0.62;;;;;19.40;1.00;;;;;;2272631;61;1603;-85
2023/05/22 04:37:57;43030.00;0.14;75.13;0.00;0.00;0.62;;;;;19.40;1.00;;;;;;2272719;61;1753;-86
2023/05/22 04:40:25;115342.00;0.38;200.05;27816.00;0.09;48.80;;;;;19.60;1.00;;;;;;2272739;61;1129;-87
2023/05/22 04:42:53;9622.00;0.03;17.29;0.00;0.00;0.62;;;;;19.80;1.00;;;;;;2272591;61;1573;-87
2023/05/22 04:45:24;23426.00;0.08;41.20;0.00;0.00;0.62;;;;;20.10;1.00;;;;;;2272546;61;1923;-84
2023/05/22 04:47:51;268758.00;0.90;464.21;18551.00;0.06;32.76;;;;;20.30;1.00;;;;;;2272669;61;1659;-86
2023/05/22 04:50:19;22372.00;0.07;39.38;0.00;0.00;0.62;;;;;20.30;1.00;;;;;;2272625;61;1028;-87
2023/05/22 04:52:46;16783.00;0.06;29.70;0.00;0.00;0.62;;;;;20.30;1.00;;;;;;2272649;61;1591;-87
2023/05/22 04:55:15;197706.00;0.66;341.97;47132.00;0.16;82.23;;;;;20.50;1.00;;;;;;2272588;61;1719;-86
2023/05/22 04:57:43;160423.00;0.53;277.77;0.00;0.00;0.62;;;;;20.60;1.00;;;;;;2272534;61;1764;-87
2023/05/22 05:00:12;82619.00;0.28;143.56;17202.00;0.06;30.42;;;;;20.70;1.00;;;;;;2272658;61;983;-87
2023/05/22 05:02:39;250285.00;0.83;432.44;61816.00;0.21;107.62;;;;;20.80;1.00;;;;;;2272505;61;1739;-87
2023/05/22 05:05:07;123105.00;0.41;213.44;34832.00;0.12;60.95;;;;;21.00;1.00;;;;;;2272570;61;1571;-88
2023/05/22 05:07:37;7849.00;0.03;14.22;0.00;0.00;0.62;;;;;21.30;1.00;;;;;;2272588;61;2013;-87
2023/05/22 05:10:05;106575.00;0.36;184.92;0.00;0.00;0.62;;;;;21.40;1.00;;;;;;2272697;61;1869;-86
2023/05/22 05:12:33;81444.00;0.27;141.53;0.00;0.00;0.62;;;;;21.80;1.00;;;;;;2272533;61;2038;-88
2023/05/22 05:15:00;214548.00;0.72;370.96;53200.00;0.18;92.72;;;;;22.00;1.00;;;;;;2272627;61;1721;-87
2023/05/22 05:17:27;43944.00;0.15;76.71;0.00;0.00;0.62;;;;;22.20;1.00;;;;;;2272487;61;1778;-86
2023/05/22 05:19:54;21472.00;0.07;37.82;0.00;0.00;0.62;;;;;22.10;1.00;;;;;;2272653;61;1074;-87
2023/05/22 05:22:21;20257.00;0.07;35.72;0.00;0.00;0.62;;;;;22.00;1.00;;;;;;2272533;61;1673;-85
2023/05/22 05:24:48;90001.00;0.30;156.31;0.00;0.00;0.62;;;;;21.90;1.00;;;;;;2272411;61;1676;-86
2023/05/22 05:27:15;28092.00;0.09;49.28;0.00;0.00;0.62;;;;;21.90;1.00;;;;;;2272373;61;1911;-87
2023/05/22 05:29:43;283898.00;0.95;490.24;61498.00;0.20;107.07;;;;;22.30;1.00;;;;;;2272694;61;1002;-87
2023/05/22 05:32:11;132344.00;0.44;229.37;0.00;0.00;0.62;;;;;22.30;1.00;;;;;;2272341;61;2017;-86
2023/05/22 05:34:38;20995.00;0.07;36.99;0.00;0.00;0.62;;;;;22.40;1.00;;;;;;2272404;61;1465;-89
2023/05/22 05:37:05;0.00;0.00;0.62;0.00;0.00;0.62;;;;;22.80;1.00;;;;;;2272547;61;1774;-87
2023/05/22 05:39:32;24245.00;0.08;42.62;0.00;0.00;0.62;;;;;23.50;1.00;;;;;;2272428;61;1816;-86
2023/05/22 05:42:00;0.00;0.00;0.62;0.00;0.00;0.62;;;;;23.80;1.00;;;;;;2272468;61;1722;-87
2023/05/22 05:44:27;38066.00;0.13;66.54;0.00;0.00;0.62;;;;;23.60;1.00;;;;;;2271984;61;1788;-88
2023/05/22 05:46:56;272923.00;0.91;471.37;52302.00;0.17;91.17;;;;;23.90;1.00;;;;;;2271851;61;2006;-89
2023/05/22 05:49:22;0.00;0.00;0.62;0.00;0.00;0.62;;;;;24.70;1.00;;;;;;2272278;61;1530;-88
2023/05/22 05:51:49;0.00;0.00;0.62;0.00;0.00;0.62;;;;;25.70;1.00;;;;;;2272503;61;1651;-88
2023/05/22 05:54:16;55897.00;0.19;97.38;0.00;0.00;0.62;;;;;26.60;1.00;;;;;;2272326;61;2046;-86
2023/05/22 05:56:43;46637.00;0.16;81.37;0.00;0.00;0.62;;;;;26.90;1.00;;;;;;2272101;61;1574;-86
2023/05/22 05:59:10;70558.00;0.24;122.72;0.00;0.00;0.62;;;;;26.70;1.00;;;;;;2272331;61;1610;-86
2023/05/22 06:01:38;0.00;0.00;0.62;0.00;0.00;0.62;;;;;26.60;1.00;;;;;;2272491;61;1754;-86
2023/05/22 06:04:07;45625.00;0.15;79.62;0.00;0.00;0.62;;;;;26.40;1.00;;;;;;2272450;61;1799;-87
2023/05/22 06:06:35;0.00;0.00;0.62;0.00;0.00;0.62;;;;;26.40;1.00;;;;;;2275572;61;2008;-87
2023/05/22 06:09:02;0.00;0.00;0.62;0.00;0.00;0.62;;;;;27.00;1.00;;;;;;2276486;61;1802;-87
2023/05/22 06:11:29;158082.00;0.53;273.73;40025.00;0.13;69.93;;;;;26.60;1.00;;;;;;2276499;61;1629;-86
2023/05/22 06:13:58;0.00;0.00;0.62;0.00;0.00;0.62;;;;;26.80;1.00;;;;;;2276442;61;1917;-88
2023/05/22 06:16:25;31804.00;0.11;55.71;0.00;0.00;0.62;;;;;26.70;1.00;;;;;;2276386;61;1606;-89
2023/05/22 06:18:52;101225.00;0.34;175.69;0.00;0.00;0.62;;;;;26.20;1.00;;;;;;2276438;61;1653;-88
2023/05/22 06:21:20;28568.00;0.10;50.10;0.00;0.00;0.62;;;;;26.60;1.00;;;;;;2276373;61;1561;-88
2023/05/22 06:23:48;0.00;0.00;0.62;0.00;0.00;0.62;;;;;26.70;1.00;;;;;;2276465;61;1131;-87
2023/05/22 06:26:15;272904.00;0.91;471.34;53775.00;0.18;93.71;;;;;27.30;1.00;;;;;;2276429;61;2278;-87
2023/05/22 06:28:42;0.00;0.00;0.62;0.00;0.00;0.62;;;;;28.10;1.00;;;;;;2276159;61;1599;-86
2023/05/22 06:31:09;15277.00;0.05;27.09;0.00;0.00;0.62;;;;;29.30;1.00;;;;;;2276440;61;1729;-88
2023/05/22 06:33:37;110393.00;0.37;191.51;0.00;0.00;0.62;;;;;30.20;1.00;;;;;;2276172;61;1940;-85
2023/05/22 06:36:04;41449.00;0.14;72.40;0.00;0.00;0.62;;;;;30.90;1.00;;;;;;2276350;61;1661;-88
2023/05/22 06:38:32;139851.00;0.47;242.31;64699.00;0.22;112.60;;;;;31.70;1.00;;;;;;2276376;61;1073;-87
2023/05/22 06:40:59;245508.00;0.82;424.23;31817.00;0.11;55.73;;;;;31.70;1.00;;;;;;2276431;61;1097;-89
2023/05/22 06:43:26;0.00;0.00;0.62;0.00;0.00;0.62;;;;;32.00;1.00;;;;;;2276414;61;1141;-87
2023/05/22 06:45:53;65476.00;0.22;113.94;0.00;0.00;0.62;;;;;32.40;1.00;;;;;;2276330;61;1915;-88
2023/05/22 06:48:20;122387.00;0.41;212.20;55878.00;0.19;97.35;;;;;32.90;1.00;;;;;;2276476;61;1076;-85
2023/05/22 06:50:47;11153.00;0.04;19.95;0.00;0.00;0.62;;;;;33.30;1.00;;;;;;2276435;61;1005;-85
2023/05/22 06:53:13;0.00;0.00;0.62;0.00;0.00;0.62;;;;;33.80;1.00;;;;;;2276365;61;927;-85
2023/05/22 06:55:42;0.00;0.00;0.62;0.00;0.00;0.62;;;;;34.20;1.00;;;;;;2276406;61;1429;-87
2023/05/22 06:58:09;25597.00;0.09;44.96;0.00;0.00;0.62;;;;;34.80;1.00;;;;;;2276350;61;1066;-86
2023/05/22 07:00:35;4063.00;0.01;7.66;0.00;0.00;0.62;;;;;33.60;1.00;;;;;;2276346;61;1145;-86
2023/05/22 07:03:05;23505.00;0.08;41.34;0.00;0.00;0.62;;;;;32.20;1.00;;;;;;2276373;61;1117;-87
2023/05/22 07:05:31;45719.00;0.15;79.78;0.00;0.00;0.62;;;;;32.20;1.00;;;;;;2276356;61;1350;-87
2023/05/22 07:07:58;131973.00;0.44;228.73;0.00;0.00;0.62;;;;;31.80;1.00;;;;;;2276290;61;1999;-86
2023/05/22 07:10:26;7454.00;0.02;13.54;0.00;0.00;0.62;;;;;30.70;1.00;;;;;;2276368;61;1109;-87
2023/05/22 07:12:54;75015.00;0.25;130.43;0.00;0.00;0.62;;;;;30.70;1.00;;;;;;2276211;61;1121;-88
2023/05/22 07:15:21;0.00;0.00;0.62;0.00;0.00;0.62;;;;;29.90;1.00;;;;;;2276285;61;1388;-87
2023/05/22 07:17:48;0.00;0.00;0.62;0.00;0.00;0.62;;;;;29.80;1.00;;;;;;2276263;61;1141;-87
2023/05/22 07:20:15;43473.00;0.14;75.90;0.00;0.00;0.62;;;;;28.90;1.00;;;;;;2276360;61;1146;-88
2023/05/22 07:22:42;10553.00;0.04;18.91;0.00;0.00;0.62;;;;;29.00;1.00;;;;;;2276263;61;1064;-87
2023/05/22 07:25:09;0.00;0.00;0.62;0.00;0.00;0.62;;;;;29.40;1.00;;;;;;2276305;61;1312;-88
2023/05/22 07:27:36;16028.00;0.05;28.39;0.00;0.00;0.62;;;;;29.90;1.00;;;;;;2276250;61;1998;-88
2023/05/22 07:30:06;0.00;0.00;0.62;0.00;0.00;0.62;;;;;30.40;1.00;;;;;;2276347;61;1144;-88
2023/05/22 07:32:32;166995.00;0.56;289.09;0.00;0.00;0.62;;;;;30.40;1.00;;;;;;2276232;61;1119;-88
2023/05/22 07:34:59;94920.00;0.32;164.80;0.00;0.00;0.62;;;;;30.40;1.00;;;;;;2276306;61;1383;-88
2023/05/22 07:37:26;40745.00;0.14;71.18;0.00;0.00;0.62;;;;;29.60;1.00;;;;;;2276202;61;1601;-86
2023/05/22 07:39:53;0.00;0.00;0.62;0.00;0.00;0.62;;;;;29.10;1.00;;;;;;2276475;61;1117;-87
2023/05/22 07:42:20;133689.00;0.45;231.69;0.00;0.00;0.62;;;;;29.10;1.00;;;;;;2277073;61;1035;-88
2023/05/22 07:44:47;10698.00;0.04;19.16;0.00;0.00;0.62;;;;;29.10;1.00;;;;;;2277002;61;1396;-87
2023/05/22 07:47:15;0.00;0.00;0.62;0.00;0.00;0.62;;;;;28.80;1.00;;;;;;2277010;61;1980;-88
2023/05/22 07:49:42;41776.00;0.14;72.96;0.00;0.00;0.62;;;;;28.80;1.00;;;;;;2277018;61;1126;-89
2023/05/22 07:52:09;88273.00;0.29;153.33;0.00;0.00;0.62;;;;;28.60;1.00;;;;;;2277029;61;1149;-88
2023/05/22 07:54:36;0.00;0.00;0.62;0.00;0.00;0.62;;;;;28.00;1.00;;;;;;2276916;61;1288;-88
2023/05/22 07:57:03;121122.00;0.40;210.02;0.00;0.00;0.62;;;;;27.80;1.00;;;;;;2275586;61;1070;-88
2023/05/22 07:59:30;0.00;0.00;0.62;0.00;0.00;0.62;;;;;27.70;1.00;;;;;;2272878;61;1047;-88
2023/05/22 08:01:57;422886.00;1.41;729.15;185620.00;0.62;321.17;;;;;27.60;1.00;;;;;;2272894;61;1067;-87
2023/05/22 08:04:25;212396.00;0.71;367.26;38185.00;0.13;66.75;;;;;27.30;1.00;;;;;;2272943;61;1385;-89
2023/05/22 08:06:52;14061.00;0.05;24.98;0.00;0.00;0.62;;;;;27.50;1.00;;;;;;2268811;61;2005;-89
2023/05/22 08:09:20;0.00;0.00;0.62;0.00;0.00;0.62;;;;;27.60;1.00;;;;;;2268857;61;1034;-87
2023/05/22 08:11:46;3857.00;0.01;7.30;0.00;0.00;0.62;;;;;27.50;1.00;;;;;;2268680;61;1143;-89
2023/05/22 08:14:13;0.00;0.00;0.62;0.00;0.00;0.62;;;;;27.50;1.00;;;;;;2268746;61;1412;-88
2023/05/22 08:16:40;75670.00;0.25;131.56;0.00;0.00;0.62;;;;;28.10;1.00;;;;;;2268851;61;1024;-88
2023/05/22 08:19:07;8585.00;0.03;15.50;0.00;0.00;0.62;;;;;29.00;1.00;;;;;;2268774;61;1103;-88
2023/05/22 08:21:36;64769.00;0.22;112.72;0.00;0.00;0.62;;;;;29.40;1.00;;;;;;2268653;61;1122;-89
2023/05/22 08:24:03;0.00;0.00;0.62;0.00;0.00;0.62;;;;;29.70;1.00;;;;;;2268681;61;1302;-89
2023/05/22 08:26:32;235115.00;0.78;406.35;21455.00;0.07;37.79;;;;;30.00;1.00;;;;;;2268684;61;1916;-89
2023/05/22 08:28:58;110311.00;0.37;191.37;44083.00;0.15;76.95;;;;;31.20;1.00;;;;;;2268696;61;1025;-87
2023/05/22 08:31:26;0.00;0.00;0.62;0.00;0.00;0.62;;;;;31.40;1.00;;;;;;2268728;61;1030;-88
2023/05/22 08:33:53;128320.00;0.43;222.43;0.00;0.00;0.62;;;;;32.70;1.00;;;;;;2268659;61;1343;-86
2023/05/22 08:36:22;47930.00;0.16;83.61;0.00;0.00;0.62;;;;;32.80;1.00;;;;;;2268730;61;918;-86
2023/05/22 08:38:50;0.00;0.00;0.62;0.00;0.00;0.62;;;;;32.70;1.00;;;;;;2268700;61;1121;-85
2023/05/22 08:41:17;11443.00;0.04;20.45;0.00;0.00;0.62;;;;;32.30;1.00;;;;;;2268654;61;1047;-87
2023/05/22 08:43:44;0.00;0.00;0.62;0.00;0.00;0.62;;;;;32.60;1.00;;;;;;2273366;61;919;-88
2023/05/22 08:46:14;44140.00;0.15;77.05;0.00;0.00;0.62;;;;;33.00;1.00;;;;;;2276786;61;1288;-85
2023/05/22 08:48:42;0.00;0.00;0.62;0.00;0.00;0.62;;;;;33.20;1.00;;;;;;2276721;61;2014;-86
2023/05/22 08:51:14;0.00;0.00;0.62;0.00;0.00;0.62;;;;;34.10;1.00;;;;;;2276624;61;1066;-86
2023/05/22 08:53:43;129409.00;0.43;224.31;0.00;0.00;0.62;;;;;34.00;1.00;;;;;;2276743;61;1129;-86
2023/05/22 08:56:12;169031.00;0.56;292.60;0.00;0.00;0.62;;;;;33.40;1.00;;;;;;2276699;61;1316;-87
2023/05/22 08:58:40;259731.00;0.87;448.69;108572.00;0.36;188.37;;;;;33.00;1.00;;;;;;2276702;61;936;-88
2023/05/22 09:01:07;241680.00;0.81;417.64;90620.00;0.30;157.38;;;;;32.60;1.00;;;;;;2276740;61;1120;-86
2023/05/22 09:03:36;4508.00;0.02;8.43;0.00;0.00;0.62;;;;;32.40;1.00;;;;;;2276652;61;1054;-87
2023/05/22 09:06:08;0.00;0.00;0.62;0.00;0.00;0.62;;;;;32.40;1.00;;;;;;2276622;61;1404;-87
2023/05/22 09:08:35;369267.00;1.23;636.98;65894.00;0.22;114.66;;;;;31.70;1.00;;;;;;2276577;61;1993;-87
2023/05/22 09:11:02;20447.00;0.07;36.04;0.00;0.00;0.62;;;;;31.60;1.00;;;;;;2276620;61;1101;-87
2023/05/22 09:13:31;24012.00;0.08;42.22;0.00;0.00;0.62;;;;;31.80;1.00;;;;;;2276614;61;1082;-86
2023/05/22 09:15:59;14310.00;0.05;25.42;0.00;0.00;0.62;;;;;32.10;1.00;;;;;;2276635;61;1305;-87
2023/05/22 09:18:28;27679.00;0.09;48.57;0.00;0.00;0.62;;;;;31.70;1.00;;;;;;2276731;61;1021;-88
2023/05/22 09:20:57;0.00;0.00;0.62;0.00;0.00;0.62;;;;;31.10;1.00;;;;;;2276657;61;1067;-87
2023/05/22 09:23:27;3395.00;0.01;6.50;0.00;0.00;0.62;;;;;31.30;1.00;;;;;;2276641;61;1141;-88
2023/05/22 09:25:56;94852.00;0.32;164.69;0.00;0.00;0.62;;;;;31.00;1.00;;;;;;2276664;61;1321;-88
2023/05/22 09:28:23;52259.00;0.17;91.09;0.00;0.00;0.62;;;;;31.20;1.00;;;;;;2276562;61;2020;-88
2023/05/22 09:30:52;0.00;0.00;0.62;0.00;0.00;0.62;;;;;31.30;1.00;;;;;;2276609;61;1690;-87
2023/05/22 09:33:19;105311.00;0.35;182.74;0.00;0.00;0.62;;;;;31.00;1.00;;;;;;2276629;61;1168;-88
2023/05/22 09:35:47;0.00;0.00;0.62;0.00;0.00;0.62;;;;;30.60;1.00;;;;;;2276540;61;1551;-88
2023/05/22 09:38:14;42706.00;0.14;74.57;0.00;0.00;0.62;;;;;30.40;1.00;;;;;;2276543;61;1165;-89
2023/05/22 09:40:41;0.00;0.00;0.62;0.00;0.00;0.62;;;;;30.50;1.00;;;;;;2276601;61;1007;-88
2023/05/22 09:43:08;0.00;0.00;0.62;0.00;0.00;0.62;;;;;30.70;1.00;;;;;;2276668;61;941;-89
2023/05/22 09:45:36;78746.00;0.26;136.87;0.00;0.00;0.62;;;;;31.00;1.00;;;;;;2276639;61;1301;-86
2023/05/22 09:48:05;36241.00;0.12;63.38;0.00;0.00;0.62;;;;;31.10;1.00;;;;;;2276464;61;1998;-88
2023/05/22 09:50:32;54296.00;0.18;94.62;0.00;0.00;0.62;;;;;30.50;1.00;;;;;;2276485;61;1098;-87
2023/05/22 09:53:02;301087.00;1.00;519.79;91251.00;0.30;158.47;;;;;30.70;1.00;;;;;;2276575;61;1125;-87
2023/05/22 09:55:30;0.00;0.00;0.62;0.00;0.00;0.62;;;;;30.50;1.00;;;;;;2276436;61;1366;-87
2023/05/22 09:58:03;85566.00;0.29;148.65;0.00;0.00;0.62;;;;;30.80;1.00;;;;;;2276511;61;1210;-88
2023/05/22 10:00:30;293683.00;0.98;507.06;87033.00;0.29;151.18;;;;;30.90;1.00;;;;;;2276599;61;1029;-87
2023/05/22 10:03:02;0.00;0.00;0.62;0.00;0.00;0.62;;;;;31.00;1.00;;;;;;2276453;61;1008;-89
2023/05/22 10:05:32;116599.00;0.39;202.22;42656.00;0.14;74.48;;;;;31.10;1.00;;;;;;2276556;61;1458;-87
2023/05/22 10:08:08;0.00;0.00;0.62;0.00;0.00;0.62;;;;;30.60;1.00;;;;;;2276543;61;1997;-89
2023/05/22 10:10:37;0.00;0.00;0.62;0.00;0.00;0.62;;;;;30.30;1.00;;;;;;2276552;61;1133;-87
2023/05/22 10:13:05;67473.00;0.22;117.39;0.00;0.00;0.62;;;;;30.50;1.00;;;;;;2276419;61;1105;-89